createdAt,value
2022-09-25T00:55:49.397Z,15.65
2022-09-25T00:58:20.354Z,15.65
2022-09-25T01:00:48.153Z,15.62
2022-09-25T01:03:16.072Z,15.60
2022-09-25T01:05:44.326Z,15.58
2022-09-25T01:08:13.760Z,15.49
2022-09-25T01:10:42.092Z,15.49
2022-09-25T01:13:09.913Z,15.47
2022-09-25T01:15:40.773Z,15.48
2022-09-25T01:18:16.057Z,15.50
2022-09-25T01:21:06.246Z,15.45
2022-09-25T01:23:56.881Z,15.44
2022-09-25T01:26:35.533Z,15.45
2022-09-25T01:29:07.931Z,15.43
2022-09-25T01:31:36.585Z,15.46
2022-09-25T01:34:10.240Z,15.45
2022-09-25T01:36:39.803Z,15.39
2022-09-25T01:39:10.633Z,15.33
2022-09-25T01:41:41.517Z,15.35
2022-09-25T01:44:13.656Z,15.33
2022-09-25T01:46:43.787Z,15.29
2022-09-25T01:49:15.281Z,15.19
2022-09-25T01:51:44.901Z,15.16
2022-09-25T01:54:14.157Z,15.09
2022-09-25T01:56:44.197Z,15.07
2022-09-25T01:59:15.212Z,15.03
2022-09-25T02:01:44.065Z,14.95
2022-09-25T02:04:13.839Z,14.94
2022-09-25T02:06:42.271Z,14.93
2022-09-25T02:09:11.479Z,14.87
2022-09-25T02:11:40.945Z,14.92
2022-09-25T02:14:10.254Z,14.93
2022-09-25T02:16:43.592Z,14.92
2022-09-25T02:19:29.280Z,14.92
2022-09-25T02:22:00.281Z,14.89
2022-09-25T02:24:30.445Z,14.89
2022-09-25T02:26:58.329Z,14.90
2022-09-25T02:29:26.311Z,14.90
2022-09-25T02:31:57.056Z,14.91
2022-09-25T02:34:24.980Z,14.91
2022-09-25T02:36:52.879Z,14.88
2022-09-25T02:39:22.568Z,14.84
2022-09-25T02:42:02.632Z,14.83
2022-09-25T02:44:34.662Z,14.83
2022-09-25T02:47:14.237Z,14.83
2022-09-25T02:49:46.416Z,14.80
2022-09-25T02:52:15.778Z,14.76
2022-09-25T02:54:46.814Z,14.69
2022-09-25T02:57:17.190Z,14.62
2022-09-25T02:59:46.939Z,14.51
2022-09-25T03:02:16.280Z,14.53
2022-09-25T03:04:44.308Z,14.55
2022-09-25T03:07:12.210Z,14.55
2022-09-25T03:09:39.080Z,14.53
2022-09-25T03:12:07.136Z,14.50
2022-09-25T03:14:35.035Z,14.47
2022-09-25T03:17:04.809Z,14.45
2022-09-25T03:19:34.895Z,14.42
2022-09-25T03:22:02.929Z,14.38
2022-09-25T03:24:31.411Z,14.34
2022-09-25T03:26:59.365Z,14.31
2022-09-25T03:29:27.379Z,14.31
2022-09-25T03:31:55.532Z,14.31
2022-09-25T03:34:23.430Z,14.30
2022-09-25T03:36:52.723Z,14.32
2022-09-25T03:39:20.625Z,14.31
2022-09-25T03:41:48.915Z,14.29
2022-09-25T03:44:16.805Z,14.25
2022-09-25T03:46:44.704Z,14.24
2022-09-25T03:49:12.876Z,14.22
2022-09-25T03:51:42.119Z,14.20
2022-09-25T03:54:11.547Z,14.16
2022-09-25T03:56:39.705Z,14.09
2022-09-25T03:59:07.668Z,14.07
2022-09-25T04:01:37.138Z,14.04
2022-09-25T04:04:05.125Z,13.87
2022-09-25T04:06:33.008Z,14.00
2022-09-25T04:09:00.900Z,13.95
2022-09-25T04:11:30.125Z,13.89
2022-09-25T04:13:58.070Z,13.86
2022-09-25T04:16:26.102Z,13.86
2022-09-25T04:18:54.057Z,13.87
2022-09-25T04:21:21.924Z,13.88
2022-09-25T04:24:03.743Z,13.87
2022-09-25T04:26:33.207Z,13.86
2022-09-25T04:29:01.647Z,13.86
2022-09-25T04:31:29.799Z,13.86
2022-09-25T04:33:56.784Z,13.86
2022-09-25T04:36:24.686Z,13.82
2022-09-25T04:38:52.636Z,13.78
2022-09-25T04:41:20.798Z,13.76
2022-09-25T04:43:50.134Z,13.74
2022-09-25T04:46:22.359Z,13.73
2022-09-25T04:48:50.855Z,13.72
2022-09-25T04:51:18.815Z,13.73
2022-09-25T04:53:47.326Z,13.73
2022-09-25T04:56:16.803Z,13.73
2022-09-25T04:58:46.150Z,13.72
2022-09-25T05:01:15.630Z,13.71
2022-09-25T05:03:43.945Z,13.69
2022-09-25T05:06:11.907Z,13.66
2022-09-25T05:08:39.825Z,13.63
2022-09-25T05:11:07.967Z,13.63
2022-09-25T05:13:35.862Z,13.65
2022-09-25T05:16:03.815Z,13.65
2022-09-25T05:21:04.302Z,13.60
2022-09-25T05:23:32.241Z,13.56
2022-09-25T05:26:02.575Z,13.56
2022-09-25T05:28:30.899Z,13.56
2022-09-25T05:31:00.186Z,13.58
2022-09-25T05:33:28.152Z,13.57
2022-09-25T05:36:00.993Z,13.56
2022-09-25T05:38:29.254Z,13.54
2022-09-25T05:40:57.325Z,13.52
2022-09-25T05:43:25.475Z,13.50
2022-09-25T05:45:56.303Z,13.52
2022-09-25T05:48:24.348Z,13.50
2022-09-25T05:50:53.291Z,13.48
2022-09-25T05:53:22.609Z,13.40
2022-09-25T05:55:51.650Z,13.40
2022-09-25T05:58:19.654Z,13.32
2022-09-25T06:00:47.705Z,13.32
2022-09-25T06:03:15.813Z,13.29
2022-09-25T06:05:46.169Z,13.29
2022-09-25T06:08:14.302Z,13.31
2022-09-25T06:10:45.081Z,13.33
2022-09-25T06:13:14.919Z,13.35
2022-09-25T06:15:42.889Z,13.36
2022-09-25T06:18:11.215Z,13.37
2022-09-25T06:20:39.101Z,13.37
2022-09-25T06:23:07.740Z,13.35
2022-09-25T06:25:36.513Z,13.34
2022-09-25T06:28:09.775Z,13.35
2022-09-25T06:30:38.405Z,13.36
2022-09-25T06:33:07.767Z,13.37
2022-09-25T06:35:35.708Z,13.33
2022-09-25T06:38:06.677Z,13.53
2022-09-25T06:40:34.867Z,13.63
2022-09-25T06:43:03.288Z,13.70
2022-09-25T06:45:34.941Z,13.76
2022-09-25T06:48:08.296Z,13.80
2022-09-25T06:50:40.721Z,13.91
2022-09-25T06:53:12.241Z,13.98
2022-09-25T06:55:40.259Z,14.03
2022-09-25T06:58:09.516Z,14.06
2022-09-25T07:00:38.885Z,14.10
2022-09-25T07:03:25.019Z,14.16
2022-09-25T07:05:53.003Z,14.16
2022-09-25T07:08:22.526Z,14.24
2022-09-25T07:10:51.224Z,14.31
2022-09-25T07:13:19.258Z,14.37
2022-09-25T07:15:53.774Z,14.41
2022-09-25T07:18:25.517Z,14.44
2022-09-25T07:20:53.987Z,14.46
2022-09-25T07:23:22.598Z,14.52
2022-09-25T07:25:50.485Z,14.54
2022-09-25T07:28:20.085Z,14.55
2022-09-25T07:30:48.258Z,14.59
2022-09-25T07:33:17.815Z,14.65
2022-09-25T07:35:45.937Z,14.75
2022-09-25T07:38:13.956Z,14.83
2022-09-25T07:40:42.007Z,14.93
2022-09-25T07:43:10.564Z,15.01
2022-09-25T07:45:38.785Z,15.11
2022-09-25T07:48:07.387Z,15.17
2022-09-25T07:50:36.706Z,15.25
2022-09-25T07:53:04.961Z,15.28
2022-09-25T07:55:32.962Z,15.38
2022-09-25T07:58:00.859Z,15.46
2022-09-25T08:00:31.802Z,15.57
2022-09-25T08:03:00.125Z,15.68
2022-09-25T08:05:28.844Z,15.81
2022-09-25T08:08:04.155Z,15.90
2022-09-25T08:10:32.674Z,16.00
2022-09-25T08:13:01.041Z,16.07
2022-09-25T08:15:29.146Z,16.14
2022-09-25T08:17:57.289Z,16.21
2022-09-25T08:20:25.158Z,16.28
2022-09-25T08:22:54.944Z,16.36
2022-09-25T08:25:24.353Z,16.42
2022-09-25T08:27:52.251Z,16.52
2022-09-25T08:30:20.317Z,16.59
2022-09-25T08:32:48.415Z,16.66
2022-09-25T08:35:16.462Z,16.74
2022-09-25T08:37:45.089Z,16.80
2022-09-25T08:40:17.807Z,16.77
2022-09-25T08:42:47.992Z,16.97
2022-09-25T08:45:42.053Z,17.06
2022-09-25T08:48:28.560Z,17.12
2022-09-25T08:50:56.444Z,17.23
2022-09-25T08:53:25.408Z,17.30
2022-09-25T08:56:10.566Z,17.40
2022-09-25T08:58:43.264Z,17.45
2022-09-25T09:01:14.240Z,17.53
2022-09-25T09:03:46.087Z,17.60
2022-09-25T09:06:15.523Z,17.64
2022-09-25T09:08:44.644Z,17.74
2022-09-25T09:11:13.982Z,17.80
2022-09-25T09:13:51.995Z,17.88
2022-09-25T09:16:24.856Z,17.96
2022-09-25T09:18:55.621Z,18.03
2022-09-25T09:21:26.631Z,18.09
2022-09-25T09:24:00.332Z,18.19
2022-09-25T09:26:37.669Z,18.25
2022-09-25T09:29:29.327Z,18.35
2022-09-25T09:32:01.779Z,18.46
2022-09-25T09:37:49.380Z,18.81
2022-09-25T09:40:22.363Z,19.10
2022-09-25T09:42:53.801Z,19.38
2022-09-25T09:45:26.106Z,19.53
2022-09-25T09:47:57.433Z,19.77
2022-09-25T09:50:32.710Z,19.96
2022-09-25T09:53:02.758Z,20.19
2022-09-25T09:55:36.556Z,20.40
2022-09-25T09:58:08.686Z,20.61
2022-09-25T10:00:39.119Z,20.84
2022-09-25T10:03:13.150Z,21.05
2022-09-25T10:05:43.967Z,21.20
2022-09-25T10:08:11.837Z,21.34
2022-09-25T10:10:40.721Z,21.33
2022-09-25T10:13:15.258Z,21.28
2022-09-25T10:15:48.342Z,21.23
2022-09-25T10:18:16.402Z,21.21
2022-09-25T10:20:45.866Z,21.21
2022-09-25T10:23:23.405Z,20.93
2022-09-25T10:25:55.745Z,21.20
2022-09-25T10:28:28.000Z,21.15
2022-09-25T10:30:58.215Z,21.08
2022-09-25T10:33:26.515Z,21.02
2022-09-25T10:35:55.128Z,20.97
2022-09-25T10:38:42.145Z,21.01
2022-09-25T10:41:12.236Z,21.03
2022-09-25T10:43:55.973Z,21.16
2022-09-25T10:46:43.802Z,21.37
2022-09-25T10:49:32.901Z,21.61
2022-09-25T10:52:06.451Z,21.82
2022-09-25T10:54:37.812Z,21.89
2022-09-25T10:57:18.254Z,21.99
2022-09-25T10:59:49.473Z,22.18
2022-09-25T11:02:28.406Z,22.19
2022-09-25T11:04:56.960Z,22.24
2022-09-25T11:07:27.880Z,22.38
2022-09-25T11:09:59.986Z,22.50
2022-09-25T11:12:29.931Z,22.57
2022-09-25T11:14:58.899Z,22.57
2022-09-25T11:17:33.445Z,22.45
2022-09-25T11:20:14.088Z,22.39
2022-09-25T11:22:42.289Z,22.33
2022-09-25T11:25:14.044Z,22.33
2022-09-25T11:27:43.414Z,22.33
2022-09-25T11:30:13.089Z,22.32
2022-09-25T11:32:51.706Z,22.40
2022-09-25T11:35:37.429Z,22.48
2022-09-25T11:38:11.576Z,22.58
2022-09-25T11:41:00.963Z,22.62
2022-09-25T11:43:37.564Z,22.69
2022-09-25T11:46:19.674Z,22.69
2022-09-25T11:48:54.506Z,22.80
2022-09-25T11:51:29.634Z,22.94
2022-09-25T11:54:25.345Z,23.09
2022-09-25T11:56:54.370Z,23.21
2022-09-25T11:59:28.902Z,23.32
2022-09-25T12:01:59.741Z,23.42
2022-09-25T12:04:56.084Z,23.53
2022-09-25T12:07:39.918Z,23.49
2022-09-25T12:10:25.092Z,23.49
2022-09-25T12:12:57.741Z,23.48
2022-09-25T12:15:27.772Z,23.44
2022-09-25T12:18:05.246Z,23.51
2022-09-25T12:20:38.757Z,23.58
2022-09-25T12:23:18.395Z,23.62
2022-09-25T12:25:53.148Z,23.55
2022-09-25T12:28:27.187Z,23.55
2022-09-25T12:31:02.244Z,23.61
2022-09-25T12:33:36.449Z,23.64
2022-09-25T12:36:09.164Z,23.61
2022-09-25T12:38:40.996Z,23.50
2022-09-25T12:41:10.931Z,23.30
2022-09-25T12:43:43.410Z,23.12
2022-09-25T12:46:15.252Z,22.96
2022-09-25T12:48:45.260Z,22.94
2022-09-25T12:51:21.793Z,23.06
2022-09-25T12:53:51.901Z,23.16
2022-09-25T12:56:22.817Z,23.26
2022-09-25T12:59:00.966Z,23.30
2022-09-25T13:01:33.743Z,23.16
2022-09-25T13:04:10.329Z,23.13
2022-09-25T13:06:43.596Z,22.94
2022-09-25T13:09:22.640Z,22.86
2022-09-25T13:11:52.618Z,22.79
2022-09-25T13:14:29.783Z,22.57
2022-09-25T13:16:58.351Z,22.49
2022-09-25T13:19:27.371Z,22.41
2022-09-25T13:22:03.732Z,22.41
2022-09-25T13:24:32.458Z,22.41
2022-09-25T13:27:03.392Z,22.40
2022-09-25T13:29:35.463Z,22.44
2022-09-25T13:32:04.843Z,22.47
2022-09-25T13:34:35.462Z,22.50
2022-09-25T13:37:05.427Z,22.49
2022-09-25T13:39:53.694Z,22.48
2022-09-25T13:42:27.210Z,22.54
2022-09-25T13:45:07.939Z,22.70
2022-09-25T13:47:57.334Z,22.93
2022-09-25T13:50:42.833Z,23.06
2022-09-25T13:53:34.994Z,23.11
2022-09-25T13:56:18.589Z,23.20
2022-09-25T13:59:26.507Z,23.42
2022-09-25T14:02:00.025Z,23.52
2022-09-25T14:04:33.122Z,23.69
2022-09-25T14:07:23.106Z,23.83
2022-09-25T14:09:54.771Z,24.06
2022-09-25T14:12:39.177Z,24.22
2022-09-25T14:15:08.601Z,24.28
2022-09-25T14:17:39.431Z,24.40
2022-09-25T14:20:11.197Z,24.38
2022-09-25T14:22:43.191Z,24.34
2022-09-25T14:25:28.327Z,24.28
2022-09-25T14:27:56.463Z,24.10
2022-09-25T14:30:29.126Z,23.91
2022-09-25T14:33:15.991Z,23.51
2022-09-25T14:35:47.752Z,23.09
2022-09-25T14:38:36.056Z,22.78
2022-09-25T14:41:30.764Z,22.52
2022-09-25T14:44:17.917Z,22.36
2022-09-25T14:46:46.146Z,22.26
2022-09-25T14:49:20.108Z,22.15
2022-09-25T14:51:48.898Z,22.25
2022-09-25T14:54:19.362Z,22.43
2022-09-25T14:56:50.274Z,22.51
2022-09-25T14:59:19.309Z,22.69
2022-09-25T15:01:48.260Z,22.74
2022-09-25T15:04:26.766Z,23.20
2022-09-25T15:07:00.626Z,23.74
2022-09-25T15:09:30.673Z,24.04
2022-09-25T15:12:00.589Z,24.09
2022-09-25T15:14:28.734Z,24.08
2022-09-25T15:17:14.356Z,24.16
2022-09-25T15:19:47.536Z,24.41
2022-09-25T15:22:18.712Z,24.62
2022-09-25T15:24:48.553Z,24.75
2022-09-25T15:27:18.275Z,24.66
2022-09-25T15:29:47.238Z,24.42
2022-09-25T15:32:18.448Z,24.08
2022-09-25T15:34:47.170Z,23.73
2022-09-25T15:37:21.061Z,23.38
2022-09-25T15:39:49.023Z,23.05
2022-09-25T15:42:18.333Z,22.85
2022-09-25T15:44:46.701Z,22.66
2022-09-25T15:47:52.058Z,22.48
2022-09-25T15:50:24.269Z,22.42
2022-09-25T15:52:52.689Z,22.39
2022-09-25T15:55:20.797Z,22.26
2022-09-25T15:57:50.556Z,22.13
2022-09-25T16:00:37.299Z,22.01
2022-09-25T16:03:24.474Z,21.86
2022-09-25T16:05:52.937Z,21.74
2022-09-25T16:08:29.419Z,21.58
2022-09-25T16:11:16.801Z,21.38
2022-09-25T16:13:48.776Z,21.19
2022-09-25T16:16:22.155Z,20.96
2022-09-25T16:18:51.233Z,20.94
2022-09-25T16:21:24.709Z,20.99
2022-09-25T16:23:56.243Z,21.04
2022-09-25T16:26:26.498Z,20.89
2022-09-25T16:29:05.056Z,20.76
2022-09-25T16:31:34.136Z,20.66
2022-09-25T16:34:02.178Z,20.59
2022-09-25T16:36:37.916Z,20.54
2022-09-25T16:39:21.744Z,20.45
2022-09-25T16:41:49.939Z,20.40
2022-09-25T16:44:20.390Z,20.29
2022-09-25T16:47:05.741Z,20.12
2022-09-25T16:49:34.269Z,20.15
2022-09-25T16:52:04.691Z,20.10
2022-09-25T16:54:32.787Z,20.03
2022-09-25T16:57:02.446Z,19.99
2022-09-25T16:59:32.147Z,19.96
2022-09-25T17:02:01.928Z,19.93
2022-09-25T17:04:31.727Z,19.87
2022-09-25T17:07:02.104Z,19.81
2022-09-25T17:09:31.428Z,19.75
2022-09-25T17:12:01.469Z,19.69
2022-09-25T17:14:29.765Z,19.65
2022-09-25T17:16:59.182Z,19.59
2022-09-25T17:19:27.121Z,19.54
2022-09-25T17:21:56.227Z,19.48
2022-09-25T17:24:25.111Z,19.44
2022-09-25T17:26:53.130Z,19.46
2022-09-25T17:29:21.558Z,19.42
2022-09-25T17:31:49.512Z,19.38
2022-09-25T17:34:21.096Z,19.34
2022-09-25T17:36:49.203Z,19.26
2022-09-25T17:39:17.127Z,19.16
2022-09-25T17:41:45.097Z,19.07
2022-09-25T17:44:14.000Z,19.04
2022-09-25T17:46:42.132Z,19.03
2022-09-25T17:49:11.294Z,19.04
2022-09-25T17:51:40.767Z,19.02
2022-09-25T17:54:09.061Z,18.97
2022-09-25T17:56:40.444Z,19.00
2022-09-25T17:59:09.172Z,19.01
2022-09-25T18:01:39.802Z,18.97
2022-09-25T18:04:18.203Z,18.95
2022-09-25T18:06:47.507Z,18.99
2022-09-25T18:09:15.457Z,18.96
2022-09-25T18:11:46.985Z,18.97
2022-09-25T18:14:15.683Z,18.93
2022-09-25T18:16:44.440Z,18.90
2022-09-25T18:19:33.148Z,18.88
2022-09-25T18:22:25.305Z,18.85
2022-09-25T18:24:56.425Z,18.84
2022-09-25T18:27:25.058Z,18.80
2022-09-25T18:29:52.989Z,18.87
2022-09-25T18:32:20.952Z,18.87
2022-09-25T18:34:48.875Z,18.89
2022-09-25T18:37:18.165Z,18.93
2022-09-25T18:39:47.920Z,18.94
2022-09-25T18:42:15.870Z,18.94
2022-09-25T18:44:43.863Z,18.93
2022-09-25T18:47:11.905Z,18.97
2022-09-25T18:49:40.158Z,18.97
2022-09-25T18:52:08.093Z,18.99
2022-09-25T18:54:37.405Z,19.00
2022-09-25T18:57:05.320Z,19.00
2022-09-25T18:59:33.520Z,18.96
2022-09-25T19:02:02.047Z,18.95
2022-09-25T19:04:30.197Z,18.94
2022-09-25T19:06:58.247Z,18.94
2022-09-25T19:09:27.776Z,18.92
2022-09-25T19:11:57.234Z,18.93
2022-09-25T19:14:25.331Z,18.93
2022-09-25T19:16:53.367Z,18.94
2022-09-25T19:19:21.317Z,18.93
2022-09-25T19:21:49.329Z,18.94
2022-09-25T19:24:18.316Z,18.95
2022-09-25T19:26:46.376Z,18.96
2022-09-25T19:29:15.845Z,18.96
2022-09-25T19:31:44.358Z,18.99
2022-09-25T19:34:12.504Z,19.00
2022-09-25T19:36:40.724Z,19.01
2022-09-25T19:39:08.797Z,19.01
2022-09-25T19:41:38.034Z,19.01
2022-09-25T19:44:12.752Z,19.01
2022-09-25T19:46:43.470Z,19.01
2022-09-25T19:49:11.549Z,19.03
2022-09-25T19:51:39.529Z,19.02
2022-09-25T19:54:07.641Z,19.02
2022-09-25T19:56:40.569Z,19.03
2022-09-25T19:59:09.163Z,19.06
2022-09-25T20:01:38.327Z,19.06
2022-09-25T20:04:08.597Z,19.07
2022-09-25T20:06:38.077Z,19.10
2022-09-25T20:09:06.772Z,19.11
2022-09-25T20:11:35.963Z,19.11
2022-09-25T20:14:05.044Z,19.11
2022-09-25T20:16:33.843Z,19.12
2022-09-25T20:19:02.989Z,19.14
2022-09-25T20:21:33.781Z,19.15
2022-09-25T20:24:02.508Z,19.17
2022-09-25T20:26:30.603Z,19.18
2022-09-25T20:28:59.324Z,19.17
2022-09-25T20:31:27.611Z,19.17
2022-09-25T20:33:55.772Z,19.17
2022-09-25T20:36:24.046Z,19.13
2022-09-25T20:38:53.554Z,19.15
2022-09-25T20:41:21.917Z,19.04
2022-09-25T20:43:50.305Z,19.18
2022-09-25T20:46:19.621Z,19.19
2022-09-25T20:48:48.493Z,19.21
2022-09-25T20:51:18.663Z,19.20
2022-09-25T20:53:50.724Z,19.22
2022-09-25T20:56:20.410Z,19.22
2022-09-25T20:58:52.870Z,19.24
2022-09-25T21:01:23.475Z,19.23
2022-09-25T21:03:51.694Z,19.21
2022-09-25T21:06:20.395Z,19.21
2022-09-25T21:08:48.608Z,19.20
2022-09-25T21:11:16.500Z,19.21
2022-09-25T21:13:45.781Z,19.17
2022-09-25T21:16:15.008Z,19.18
2022-09-25T21:18:43.503Z,19.16
2022-09-25T21:21:12.410Z,19.18
2022-09-25T21:23:40.545Z,19.16
2022-09-25T21:26:10.342Z,19.14
2022-09-25T21:28:39.119Z,19.20
2022-09-25T21:31:10.411Z,19.21
2022-09-25T21:33:38.425Z,19.24
2022-09-25T21:36:06.713Z,19.27
2022-09-25T21:38:37.259Z,19.28
2022-09-25T21:41:06.364Z,19.29
2022-09-25T21:43:35.097Z,19.32
2022-09-25T21:46:03.995Z,19.34
2022-09-25T21:48:35.052Z,19.32
2022-09-25T21:51:03.409Z,19.35
2022-09-25T21:53:35.648Z,19.36
2022-09-25T21:56:04.800Z,19.38
2022-09-25T21:58:32.957Z,19.41
2022-09-25T22:01:05.589Z,19.42
2022-09-25T22:03:35.384Z,19.38
2022-09-25T22:06:04.066Z,19.38
2022-09-25T22:08:32.089Z,19.41
2022-09-25T22:11:00.524Z,19.40
2022-09-25T22:13:29.237Z,19.42
2022-09-25T22:16:01.509Z,19.42
2022-09-25T22:18:29.557Z,19.46
2022-09-25T22:20:58.855Z,19.43
2022-09-25T22:23:26.858Z,19.45
2022-09-25T22:25:54.825Z,19.44
2022-09-25T22:28:22.788Z,19.46
2022-09-25T22:30:51.192Z,19.40
2022-09-25T22:33:19.137Z,19.47
2022-09-25T22:35:46.997Z,19.50
2022-09-25T22:38:16.316Z,19.51
2022-09-25T22:40:44.272Z,19.51
2022-09-25T22:43:12.301Z,19.53
2022-09-25T22:45:40.732Z,19.46
2022-09-25T22:48:09.138Z,19.50
2022-09-25T22:50:37.056Z,19.46
2022-09-25T22:53:05.052Z,19.44
2022-09-25T22:55:34.952Z,19.37
2022-09-25T22:58:08.634Z,19.29
2022-09-25T23:00:37.089Z,19.23
2022-09-25T23:03:05.071Z,19.17
2022-09-25T23:05:36.736Z,19.10
2022-09-25T23:08:04.901Z,19.10
2022-09-25T23:10:55.241Z,19.17
2022-09-25T23:13:23.056Z,19.25
2022-09-25T23:15:51.219Z,19.31
2022-09-25T23:18:19.102Z,19.39
2022-09-25T23:20:46.980Z,19.44
2022-09-25T23:23:15.185Z,19.39
2022-09-25T23:25:46.522Z,19.36
2022-09-25T23:28:14.554Z,19.29
2022-09-25T23:30:42.706Z,19.29
2022-09-25T23:33:10.645Z,19.34
2022-09-25T23:35:38.558Z,19.39
2022-09-25T23:38:06.454Z,19.44
2022-09-25T23:40:34.446Z,19.48
2022-09-25T23:43:04.091Z,19.54
2022-09-25T23:45:32.078Z,19.57
2022-09-25T23:48:00.049Z,19.60
2022-09-25T23:50:28.057Z,19.65
2022-09-25T23:52:56.017Z,19.70
2022-09-25T23:55:23.874Z,19.73
2022-09-25T23:57:51.806Z,19.74
